createdAt,value
2019-04-10T00:01:04.358Z,57.05
2019-04-10T00:03:37.322Z,57.15
2019-04-10T00:06:04.592Z,56.99
2019-04-10T00:08:33.093Z,57.20
2019-04-10T00:11:02.581Z,57.26
2019-04-10T00:13:31.016Z,57.37
2019-04-10T00:15:59.474Z,57.55
2019-04-10T00:18:27.868Z,57.72
2019-04-10T00:20:56.677Z,57.60
2019-04-10T00:23:25.227Z,57.76
2019-04-10T00:25:53.783Z,57.86
2019-04-10T00:28:23.304Z,58.00
2019-04-10T00:30:51.754Z,58.23
2019-04-10T00:33:20.796Z,58.43
2019-04-10T00:35:49.884Z,58.56
2019-04-10T00:38:18.375Z,58.72
2019-04-10T00:40:47.793Z,58.82
2019-04-10T00:43:17.046Z,58.97
2019-04-10T00:45:46.000Z,59.06
2019-04-10T00:48:15.285Z,59.23
2019-04-10T00:50:44.594Z,59.35
2019-04-10T00:53:13.065Z,59.43
2019-04-10T00:55:41.456Z,59.46
2019-04-10T00:58:10.017Z,59.82
2019-04-10T01:00:39.215Z,59.54
2019-04-10T01:03:07.797Z,59.65
2019-04-10T01:05:36.190Z,59.72
2019-04-10T01:08:04.577Z,59.70
2019-04-10T01:10:32.967Z,59.80
2019-04-10T01:13:01.369Z,60.09
2019-04-10T01:15:30.808Z,60.07
2019-04-10T01:17:59.281Z,59.97
2019-04-10T01:20:27.668Z,60.03
2019-04-10T01:22:57.248Z,59.98
2019-04-10T01:25:26.212Z,60.21
2019-04-10T01:27:54.594Z,60.33
2019-04-10T01:30:22.996Z,60.27
2019-04-10T01:32:52.244Z,60.42
2019-04-10T01:35:20.762Z,60.33
2019-04-10T01:37:54.541Z,60.32
2019-04-10T01:40:20.725Z,60.44
2019-04-10T01:43:02.359Z,60.67
2019-04-10T01:45:20.202Z,60.67
2019-04-10T01:47:48.588Z,60.80
2019-04-10T01:50:17.952Z,60.69
2019-04-10T01:52:47.117Z,60.80
2019-04-10T01:55:23.111Z,61.02
2019-04-10T01:57:46.334Z,60.89
2019-04-10T02:00:19.514Z,61.04
2019-04-10T02:02:54.045Z,60.96
2019-04-10T02:05:22.799Z,61.17
2019-04-10T02:08:01.240Z,61.28
2019-04-10T02:10:21.396Z,61.52
2019-04-10T02:12:50.849Z,61.47
2019-04-10T02:15:19.680Z,61.63
2019-04-10T02:17:48.700Z,61.60
2019-04-10T02:20:17.321Z,61.54
2019-04-10T02:22:45.881Z,61.88
2019-04-10T02:25:15.770Z,61.86
2019-04-10T02:27:44.694Z,61.96
2019-04-10T02:30:15.086Z,62.03
2019-04-10T02:32:47.653Z,62.20
2019-04-10T02:35:17.151Z,62.19
2019-04-10T02:37:44.268Z,62.10
2019-04-10T02:40:15.078Z,62.33
2019-04-10T02:42:45.028Z,62.27
2019-04-10T02:45:14.872Z,62.55
2019-04-10T02:47:45.011Z,62.66
2019-04-10T02:50:14.266Z,62.53
2019-04-10T02:52:43.259Z,62.80
2019-04-10T02:55:12.151Z,63.07
2019-04-10T02:57:41.358Z,62.96
2019-04-10T03:00:11.031Z,63.07
2019-04-10T03:02:41.642Z,63.04
2019-04-10T03:05:10.822Z,63.22
2019-04-10T03:07:40.332Z,63.24
2019-04-10T03:10:20.499Z,63.30
2019-04-10T03:12:41.072Z,63.56
2019-04-10T03:15:12.295Z,63.79
2019-04-10T03:17:40.226Z,63.71
2019-04-10T03:20:09.947Z,63.88
2019-04-10T03:22:38.446Z,63.89
2019-04-10T03:25:08.878Z,63.83
2019-04-10T03:27:38.567Z,63.96
2019-04-10T03:30:10.008Z,64.15
2019-04-10T03:32:43.561Z,64.26
2019-04-10T03:35:14.549Z,64.16
2019-04-10T03:37:43.004Z,64.28
2019-04-10T03:40:11.534Z,64.20
2019-04-10T03:42:39.923Z,64.23
2019-04-10T03:45:09.568Z,64.37
2019-04-10T03:47:38.039Z,64.34
2019-04-10T03:50:08.743Z,64.43
2019-04-10T03:52:37.831Z,64.45
2019-04-10T03:55:06.956Z,64.64
2019-04-10T03:57:36.406Z,64.42
2019-04-10T04:00:06.812Z,64.60
2019-04-10T04:02:35.926Z,64.72
2019-04-10T04:05:06.534Z,64.59
2019-04-10T04:07:35.013Z,64.67
2019-04-10T04:10:04.421Z,64.65
2019-04-10T04:12:32.873Z,64.51
2019-04-10T04:15:02.245Z,64.57
2019-04-10T04:17:32.453Z,64.51
2019-04-10T04:20:00.927Z,64.72
2019-04-10T04:22:29.317Z,65.15
2019-04-10T04:24:58.235Z,64.99
2019-04-10T04:27:27.117Z,64.63
2019-04-10T04:29:55.582Z,64.78
2019-04-10T04:32:24.066Z,64.84
2019-04-10T04:34:52.452Z,64.74
2019-04-10T04:37:20.936Z,64.86
2019-04-10T04:39:49.333Z,65.06
2019-04-10T04:42:17.735Z,65.07
2019-04-10T04:44:46.125Z,65.03
2019-04-10T04:47:15.570Z,65.15
2019-04-10T04:49:44.436Z,65.18
2019-04-10T04:52:14.193Z,65.15
2019-04-10T04:54:43.523Z,64.96
2019-04-10T04:57:12.773Z,65.21
2019-04-10T04:59:41.152Z,65.20
2019-04-10T05:02:10.082Z,65.35
2019-04-10T05:04:39.520Z,65.19
2019-04-10T05:07:08.349Z,64.97
2019-04-10T05:09:39.157Z,65.00
2019-04-10T05:12:07.195Z,65.04
2019-04-10T05:14:35.744Z,65.41
2019-04-10T05:17:04.070Z,64.99
2019-04-10T05:19:32.473Z,64.94
2019-04-10T05:22:01.659Z,64.79
2019-04-10T05:24:30.110Z,64.82
2019-04-10T05:26:59.190Z,64.86
2019-04-10T05:29:30.379Z,64.86
2019-04-10T05:31:58.725Z,64.67
2019-04-10T05:34:27.601Z,64.57
2019-04-10T05:36:56.875Z,64.62
2019-04-10T05:39:25.300Z,64.25
2019-04-10T05:41:54.811Z,64.53
2019-04-10T05:44:23.551Z,64.19
2019-04-10T05:46:52.686Z,64.49
2019-04-10T05:49:21.034Z,64.43
2019-04-10T05:51:50.100Z,64.38
2019-04-10T05:54:19.234Z,64.31
2019-04-10T05:56:47.656Z,64.15
2019-04-10T05:59:16.444Z,63.81
2019-04-10T06:01:45.722Z,63.82
2019-04-10T06:04:14.096Z,63.84
2019-04-10T06:06:42.479Z,63.87
2019-04-10T06:09:10.870Z,63.77
2019-04-10T06:11:39.826Z,63.57
2019-04-10T06:14:10.140Z,63.37
2019-04-10T06:16:38.551Z,63.59
2019-04-10T06:19:07.349Z,63.44
2019-04-10T06:21:35.766Z,63.42
2019-04-10T06:24:04.133Z,63.40
2019-04-10T06:26:32.761Z,63.33
2019-04-10T06:29:02.295Z,63.39
2019-04-10T06:31:30.765Z,63.33
2019-04-10T06:34:00.362Z,63.27
2019-04-10T06:36:29.148Z,63.33
2019-04-10T06:38:57.587Z,63.41
2019-04-10T06:41:26.404Z,63.03
2019-04-10T06:43:55.281Z,63.21
2019-04-10T06:46:24.333Z,63.22
2019-04-10T06:48:52.893Z,63.07
2019-04-10T06:51:21.729Z,63.31
2019-04-10T06:53:59.900Z,63.19
2019-04-10T06:56:20.847Z,63.11
2019-04-10T06:58:49.892Z,63.07
2019-04-10T07:01:20.994Z,63.09
2019-04-10T07:03:58.673Z,63.03
2019-04-10T07:06:21.950Z,63.04
2019-04-10T07:08:52.730Z,62.47
2019-04-10T07:11:21.518Z,62.43
2019-04-10T07:13:49.221Z,61.91
2019-04-10T07:16:17.986Z,61.66
2019-04-10T07:18:49.027Z,61.35
2019-04-10T07:21:16.771Z,61.28
2019-04-10T07:23:45.225Z,61.35
2019-04-10T07:26:18.536Z,61.44
2019-04-10T07:28:45.901Z,61.21
2019-04-10T07:31:14.089Z,61.01
2019-04-10T07:33:42.636Z,60.76
2019-04-10T07:36:13.642Z,60.60
2019-04-10T07:38:41.384Z,60.51
2019-04-10T07:41:15.413Z,60.32
2019-04-10T07:43:40.603Z,60.06
2019-04-10T07:46:09.039Z,59.48
2019-04-10T07:48:37.817Z,59.52
2019-04-10T07:51:06.987Z,59.45
2019-04-10T07:53:35.368Z,59.55
2019-04-10T07:56:07.555Z,59.43
2019-04-10T07:58:33.980Z,59.31
2019-04-10T08:01:02.449Z,59.40
2019-04-10T08:03:31.210Z,59.54
2019-04-10T08:06:00.353Z,59.77
2019-04-10T08:08:29.968Z,59.55
2019-04-10T08:10:59.395Z,59.60
2019-04-10T08:13:28.878Z,59.41
2019-04-10T08:15:58.389Z,59.60
2019-04-10T08:18:27.609Z,59.17
2019-04-10T08:20:57.164Z,58.94
2019-04-10T08:23:25.971Z,59.01
2019-04-10T08:25:56.016Z,58.90
2019-04-10T08:28:24.355Z,59.29
2019-04-10T08:30:52.744Z,59.21
2019-04-10T08:33:21.798Z,59.17
2019-04-10T08:35:50.310Z,59.45
2019-04-10T08:38:18.701Z,59.37
2019-04-10T08:40:48.126Z,59.63
2019-04-10T08:43:16.675Z,59.54
2019-04-10T08:45:50.037Z,59.70
2019-04-10T08:48:15.532Z,59.72
2019-04-10T08:50:44.051Z,59.52
2019-04-10T08:53:12.446Z,59.64
2019-04-10T08:55:42.020Z,59.45
2019-04-10T08:58:11.988Z,59.11
2019-04-10T09:00:40.737Z,59.14
2019-04-10T09:03:09.215Z,58.88
2019-04-10T09:05:37.799Z,58.97
2019-04-10T09:08:06.229Z,58.79
2019-04-10T09:10:34.667Z,58.69
2019-04-10T09:13:04.184Z,58.39
2019-04-10T09:15:32.743Z,58.13
2019-04-10T09:18:02.207Z,58.27
2019-04-10T09:20:30.981Z,57.83
2019-04-10T09:23:15.508Z,57.98
2019-04-10T09:25:29.505Z,57.62
2019-04-10T09:27:58.029Z,57.72
2019-04-10T09:30:26.931Z,57.45
2019-04-10T09:32:55.463Z,57.18
2019-04-10T09:35:24.636Z,56.76
2019-04-10T09:37:53.124Z,56.76
2019-04-10T09:40:22.431Z,56.70
2019-04-10T09:42:50.806Z,56.70
2019-04-10T09:45:20.388Z,56.57
2019-04-10T09:47:48.789Z,55.94
2019-04-10T09:50:17.335Z,55.72
2019-04-10T09:52:46.227Z,55.69
2019-04-10T09:55:15.924Z,55.30
2019-04-10T09:57:45.249Z,54.96
2019-04-10T10:00:15.260Z,54.72
2019-04-10T10:02:43.817Z,54.31
2019-04-10T10:05:12.648Z,54.34
2019-04-10T10:07:41.126Z,53.94
2019-04-10T10:10:10.638Z,54.02
2019-04-10T10:12:39.084Z,53.73
2019-04-10T10:15:09.573Z,53.41
2019-04-10T10:17:39.072Z,53.43
2019-04-10T10:20:08.342Z,53.57
2019-04-10T10:22:37.087Z,52.54
2019-04-10T10:25:07.491Z,52.61
2019-04-10T10:27:36.451Z,52.59
2019-04-10T10:30:11.605Z,52.66
2019-04-10T10:32:42.147Z,52.70
2019-04-10T10:35:11.258Z,52.85
2019-04-10T10:37:40.939Z,52.54
2019-04-10T10:40:10.209Z,52.58
2019-04-10T10:42:40.229Z,51.92
2019-04-10T10:45:10.531Z,51.78
2019-04-10T10:47:40.157Z,52.06
2019-04-10T10:50:09.282Z,52.13
2019-04-10T10:52:37.684Z,51.77
2019-04-10T10:55:07.656Z,51.50
2019-04-10T10:57:36.095Z,51.24
2019-04-10T11:00:08.404Z,50.89
2019-04-10T11:02:37.961Z,51.35
2019-04-10T11:05:07.198Z,51.54
2019-04-10T11:07:35.722Z,51.18
2019-04-10T11:10:06.992Z,51.28
2019-04-10T11:12:35.783Z,51.02
2019-04-10T11:15:05.998Z,50.95
2019-04-10T11:17:35.720Z,50.93
2019-04-10T11:20:08.097Z,50.79
2019-04-10T11:22:37.729Z,50.39
2019-04-10T11:25:07.954Z,50.47
2019-04-10T11:27:36.494Z,50.65
2019-04-10T11:30:08.267Z,50.58
2019-04-10T11:32:38.041Z,50.62
2019-04-10T11:35:07.710Z,50.41
2019-04-10T11:37:43.428Z,50.87
2019-04-10T11:40:08.763Z,50.21
2019-04-10T11:42:39.726Z,50.13
2019-04-10T11:45:10.551Z,50.05
2019-04-10T11:47:39.501Z,49.64
2019-04-10T11:52:44.857Z,49.88
2019-04-10T11:55:13.728Z,49.97
2019-04-10T11:57:39.317Z,49.72
2019-04-10T12:00:18.841Z,49.47
2019-04-10T12:02:45.859Z,49.43
2019-04-10T12:05:18.482Z,49.57
2019-04-10T12:12:43.931Z,49.60
2019-04-10T12:15:12.559Z,49.71
2019-04-10T12:17:40.971Z,49.75
2019-04-10T12:20:09.507Z,49.51
2019-04-10T12:22:38.024Z,49.67
2019-04-10T12:25:07.008Z,49.08
2019-04-10T12:27:35.481Z,49.07
2019-04-10T12:30:06.825Z,48.73
2019-04-10T12:32:35.371Z,48.88
2019-04-10T12:35:05.277Z,48.89
2019-04-10T12:37:33.675Z,49.10
2019-04-10T12:40:02.110Z,49.20
2019-04-10T12:42:30.508Z,49.24
2019-04-10T12:44:59.710Z,49.32
2019-04-10T12:47:28.083Z,49.30
2019-04-10T12:49:56.909Z,49.31
2019-04-10T12:52:26.829Z,49.36
2019-04-10T12:54:55.361Z,49.39
2019-04-10T12:57:23.754Z,49.10
2019-04-10T12:59:52.216Z,49.27
2019-04-10T13:02:22.578Z,49.22
2019-04-10T13:04:50.977Z,49.30
2019-04-10T13:07:19.428Z,49.27
2019-04-10T13:09:48.511Z,48.95
2019-04-10T13:12:17.523Z,48.66
2019-04-10T13:14:46.513Z,48.80
2019-04-10T13:17:15.137Z,48.94
2019-04-10T13:19:43.574Z,48.63
2019-04-10T13:22:11.987Z,48.96
2019-04-10T13:24:40.387Z,48.52
2019-04-10T13:27:08.776Z,48.58
2019-04-10T13:29:37.184Z,48.13
2019-04-10T13:32:06.250Z,47.90
2019-04-10T13:34:35.381Z,47.71
2019-04-10T13:37:04.115Z,47.87
2019-04-10T13:39:32.914Z,48.14
2019-04-10T13:42:01.365Z,48.48
2019-04-10T13:44:30.795Z,48.05
2019-04-10T13:46:59.492Z,48.40
2019-04-10T13:49:28.405Z,48.81
2019-04-10T13:51:56.842Z,48.53
2019-04-10T13:54:26.345Z,48.88
2019-04-10T13:56:55.227Z,48.89
2019-04-10T13:59:24.757Z,48.77
2019-04-10T14:01:53.251Z,48.88
2019-04-10T14:04:22.867Z,48.61
2019-04-10T14:06:53.525Z,49.18
2019-04-10T14:09:34.353Z,49.86
2019-04-10T14:11:53.472Z,49.83
2019-04-10T14:14:22.117Z,50.29
2019-04-10T14:16:50.514Z,50.70
2019-04-10T14:19:18.908Z,50.98
2019-04-10T14:21:47.320Z,51.02
2019-04-10T14:24:17.621Z,51.05
2019-04-10T14:26:52.745Z,51.02
2019-04-10T14:29:21.073Z,51.01
2019-04-10T14:31:51.101Z,50.85
2019-04-10T14:34:20.215Z,51.14
2019-04-10T14:36:49.673Z,50.83
2019-04-10T14:39:21.188Z,50.87
2019-04-10T14:41:49.766Z,50.97
2019-04-10T14:44:18.361Z,50.78
2019-04-10T14:46:46.850Z,50.79
2019-04-10T14:49:15.247Z,50.88
2019-04-10T14:51:44.390Z,50.96
2019-04-10T14:54:15.461Z,50.56
2019-04-10T14:56:44.251Z,50.70
2019-04-10T14:59:12.991Z,50.69
2019-04-10T15:01:42.046Z,50.57
2019-04-10T15:04:10.950Z,50.92
2019-04-10T15:06:41.746Z,51.07
2019-04-10T15:09:25.352Z,50.98
2019-04-10T15:11:49.498Z,51.16
2019-04-10T15:14:17.885Z,51.12
2019-04-10T15:16:54.363Z,51.14
2019-04-10T15:19:16.420Z,51.22
2019-04-10T15:21:45.147Z,51.23
2019-04-10T15:24:13.524Z,51.29
2019-04-10T15:26:41.916Z,51.33
2019-04-10T15:29:10.336Z,51.30
2019-04-10T15:31:39.687Z,51.42
2019-04-10T15:34:08.053Z,51.27
2019-04-10T15:36:36.447Z,51.30
2019-04-10T15:39:07.072Z,51.67
2019-04-10T15:41:35.540Z,51.37
2019-04-10T15:44:04.086Z,51.32
2019-04-10T15:46:33.125Z,50.92
2019-04-10T15:49:02.679Z,51.34
2019-04-10T15:51:32.038Z,51.41
2019-04-10T15:54:01.262Z,51.52
2019-04-10T15:56:29.927Z,51.63
2019-04-10T15:58:58.332Z,51.47
2019-04-10T16:01:28.414Z,51.36
2019-04-10T16:03:56.965Z,51.39
2019-04-10T16:06:25.485Z,51.61
2019-04-10T16:08:53.904Z,51.45
2019-04-10T16:11:27.935Z,51.86
2019-04-10T16:13:59.073Z,51.68
2019-04-10T16:16:31.939Z,51.74
2019-04-10T16:19:20.457Z,52.01
2019-04-10T16:21:50.009Z,52.14
2019-04-10T16:24:20.598Z,52.31
2019-04-10T16:26:49.630Z,52.21
2019-04-10T16:29:18.219Z,52.34
2019-04-10T16:31:46.602Z,52.43
2019-04-10T16:34:15.659Z,52.40
2019-04-10T16:36:44.054Z,52.59
2019-04-10T16:39:15.453Z,52.58
2019-04-10T16:41:44.062Z,52.77
2019-04-10T16:44:13.070Z,52.74
2019-04-10T16:46:42.518Z,52.92
2019-04-10T16:49:11.008Z,52.76
2019-04-10T16:51:40.580Z,52.75
2019-04-10T16:54:08.984Z,52.98
2019-04-10T16:56:38.035Z,53.08
2019-04-10T16:59:06.692Z,52.94
2019-04-10T17:01:35.251Z,53.16
2019-04-10T17:04:04.773Z,53.16
2019-04-10T17:06:34.248Z,53.28
2019-04-10T17:09:02.967Z,53.42
2019-04-10T17:11:31.994Z,53.33
2019-04-10T17:14:00.392Z,53.36
2019-04-10T17:16:29.403Z,53.47
2019-04-10T17:18:59.282Z,53.33
2019-04-10T17:21:30.549Z,53.58
2019-04-10T17:23:58.773Z,53.62
2019-04-10T17:26:27.212Z,53.35
2019-04-10T17:28:56.670Z,53.75
2019-04-10T17:31:26.644Z,53.72
2019-04-10T17:33:56.521Z,53.74
2019-04-10T17:36:25.512Z,53.86
2019-04-10T17:38:55.137Z,53.80
2019-04-10T17:41:23.848Z,53.64
2019-04-10T17:43:54.241Z,54.10
2019-04-10T17:46:22.815Z,53.60
2019-04-10T17:48:51.751Z,53.77
2019-04-10T17:51:21.849Z,53.76
2019-04-10T17:53:50.531Z,53.60
2019-04-10T17:56:20.125Z,53.51
2019-04-10T17:58:49.728Z,53.80
2019-04-10T18:01:20.864Z,53.78
2019-04-10T18:03:53.687Z,53.67
2019-04-10T18:06:21.374Z,53.54
2019-04-10T18:08:49.976Z,53.56
2019-04-10T18:11:18.441Z,53.51
2019-04-10T18:13:46.944Z,53.44
2019-04-10T18:16:15.403Z,53.44
2019-04-10T18:18:45.723Z,53.57
2019-04-10T18:21:15.052Z,53.64
2019-04-10T18:23:43.955Z,53.63
2019-04-10T18:26:12.469Z,53.59
2019-04-10T18:28:41.492Z,53.50
2019-04-10T18:31:10.364Z,53.44
2019-04-10T18:33:38.765Z,53.35
2019-04-10T18:36:07.187Z,53.21
2019-04-10T18:38:35.641Z,53.28
2019-04-10T18:41:07.038Z,53.09
2019-04-10T18:43:34.252Z,53.19
2019-04-10T18:46:10.727Z,53.28
2019-04-10T18:48:32.770Z,53.28
2019-04-10T18:51:01.492Z,53.38
2019-04-10T18:53:30.040Z,53.44
2019-04-10T18:55:58.650Z,53.20
2019-04-10T18:58:29.725Z,53.20
2019-04-10T19:01:14.271Z,53.33
2019-04-10T19:03:59.675Z,53.38
2019-04-10T19:06:28.854Z,53.46
2019-04-10T19:11:33.257Z,53.23
2019-04-10T19:13:57.513Z,53.24
2019-04-10T19:16:27.688Z,53.34
2019-04-10T19:18:56.886Z,53.34
2019-04-10T19:21:25.320Z,53.51
2019-04-10T19:23:55.486Z,53.56
2019-04-10T19:26:24.976Z,53.61
2019-04-10T19:28:53.426Z,53.58
2019-04-10T19:31:26.414Z,53.67
2019-04-10T19:33:56.782Z,53.70
2019-04-10T19:36:25.843Z,53.71
2019-04-10T19:38:54.330Z,53.76
2019-04-10T19:41:30.762Z,53.81
2019-04-10T19:43:52.900Z,53.70
2019-04-10T19:46:21.603Z,53.61
2019-04-10T19:48:51.845Z,53.59
2019-04-10T19:51:20.109Z,53.65
2019-04-10T19:53:49.160Z,53.69
2019-04-10T19:56:18.165Z,53.64
2019-04-10T19:58:46.551Z,53.55
2019-04-10T20:01:14.944Z,53.54
2019-04-10T20:03:44.352Z,53.63
2019-04-10T20:06:12.705Z,53.68
2019-04-10T20:08:41.926Z,53.71
2019-04-10T20:11:10.815Z,53.50
2019-04-10T20:13:39.206Z,53.46
2019-04-10T20:16:07.629Z,53.59
2019-04-10T20:18:37.017Z,53.25
2019-04-10T20:21:05.854Z,53.29
2019-04-10T20:23:34.370Z,53.38
2019-04-10T20:26:03.336Z,53.41
2019-04-10T20:28:33.018Z,53.26
2019-04-10T20:31:02.864Z,52.94
2019-04-10T20:33:32.544Z,52.53
2019-04-10T20:36:00.997Z,52.65
2019-04-10T20:38:31.830Z,52.40
2019-04-10T20:41:00.409Z,51.96
2019-04-10T20:43:30.583Z,52.22
2019-04-10T20:46:00.022Z,51.90
2019-04-10T20:48:28.747Z,51.93
2019-04-10T20:50:57.387Z,51.94
2019-04-10T20:53:26.807Z,51.82
2019-04-10T20:55:55.266Z,51.56
2019-04-10T20:58:23.669Z,51.56
2019-04-10T21:00:52.069Z,51.25
2019-04-10T21:03:20.472Z,51.73
2019-04-10T21:05:48.881Z,51.85
2019-04-10T21:08:19.851Z,52.05
2019-04-10T21:10:49.255Z,52.17
2019-04-10T21:13:19.068Z,51.81
2019-04-10T21:15:48.479Z,51.98
2019-04-10T21:18:17.419Z,51.80
2019-04-10T21:20:45.837Z,51.80
2019-04-10T21:23:15.129Z,52.00
2019-04-10T21:25:45.575Z,52.17
2019-04-10T21:28:14.209Z,51.96
2019-04-10T21:31:00.772Z,51.70
2019-04-10T21:33:33.734Z,50.82
2019-04-10T21:36:02.125Z,51.16
2019-04-10T21:38:30.512Z,51.15
2019-04-10T21:40:59.503Z,50.51
2019-04-10T21:43:28.230Z,50.49
2019-04-10T21:45:57.462Z,50.32
2019-04-10T21:48:26.501Z,50.12
2019-04-10T21:50:54.944Z,49.79
2019-04-10T21:53:24.026Z,49.69
2019-04-10T21:55:53.572Z,49.49
2019-04-10T21:58:22.076Z,49.15
2019-04-10T22:01:01.383Z,49.00
2019-04-10T22:03:30.123Z,48.33
2019-04-10T22:06:17.645Z,48.38
2019-04-10T22:08:48.076Z,48.51
2019-04-10T22:11:16.989Z,48.56
2019-04-10T22:13:48.642Z,48.47
2019-04-10T22:16:19.767Z,48.44
2019-04-10T22:18:50.040Z,48.64
2019-04-10T22:21:18.646Z,48.52
2019-04-10T22:23:47.273Z,48.68
2019-04-10T22:26:15.821Z,48.85
2019-04-10T22:28:45.417Z,48.74
2019-04-10T22:31:13.938Z,48.98
2019-04-10T22:33:42.672Z,48.66
2019-04-10T22:36:11.078Z,48.95
2019-04-10T22:38:39.924Z,48.79
2019-04-10T22:41:19.761Z,48.77
2019-04-10T22:43:38.732Z,48.62
2019-04-10T22:46:07.195Z,48.78
2019-04-10T22:48:35.588Z,48.82
2019-04-10T22:51:04.052Z,48.73
2019-04-10T22:53:33.128Z,48.86
2019-04-10T22:56:01.543Z,49.03
2019-04-10T22:58:29.928Z,49.04
2019-04-10T23:00:58.338Z,49.13
2019-04-10T23:03:27.889Z,49.01
2019-04-10T23:05:56.566Z,49.03
2019-04-10T23:08:25.353Z,49.07
2019-04-10T23:10:53.731Z,48.98
2019-04-10T23:13:22.119Z,49.14
2019-04-10T23:15:51.467Z,49.42
2019-04-10T23:18:19.896Z,49.47
2019-04-10T23:20:48.311Z,49.43
2019-04-10T23:23:16.908Z,49.55
2019-04-10T23:25:45.347Z,49.66
2019-04-10T23:28:13.766Z,49.78
2019-04-10T23:30:43.392Z,49.79
2019-04-10T23:33:12.193Z,49.83
2019-04-10T23:35:41.282Z,49.89
2019-04-10T23:38:09.781Z,49.93
2019-04-10T23:40:38.349Z,50.04
2019-04-10T23:43:12.995Z,50.09
2019-04-10T23:45:37.815Z,50.02
2019-04-10T23:48:06.683Z,50.16
2019-04-10T23:50:35.154Z,50.21
2019-04-10T23:53:04.511Z,50.23
2019-04-10T23:55:32.987Z,50.34
2019-04-10T23:58:02.098Z,50.53
